Corpus Christi, TX (78413)

5:17 AM CST on January 31, 2015 (GMT -0600)
Shannon Estates | Change Station
CLOSE
Current Station
Personal Weather Station
Location: Corpus Christi, TX
Elevation: 36 ft
Nearby Weather Stations

Elev 36 ft 27.70 °N, 97.40 °W | Updated 9 minutes ago

Overcast
Overcast
60.3 °F
Feels Like 60.3 °F
N
3.2
Wind Variable Wind from NNE

Today
High -- | Low -- °F
--% Chance of Precip.
Yesterday
High -- | Low -- °F
Precip. -- in
7:16 AM 6:09 PM
Waxing Gibbous, 89% visible
Pressure 30.09 in
Visibility 6.0 miles
Clouds Overcast 2000 ft
Dew Point 59 °F
Humidity 97%
Rainfall 0.00 in
Snow Depth Not available.
UV 0 out of 12
Pollen 8.40 out of 12
Air Quality Not available.
Flu Activity Not available.
METAR KNGP 311056Z AUTO 05007KT 6SM BR OVC020 16/16 A3009 RMK AO2 SLP187 T01610156

More Conditions Fewer Conditions

Pressure 30.09 in
Visibility 6.0 miles
Clouds Overcast 2000 ft
Dew Point 59 °F
Humidity 97%
Rainfall 0.00 in
Snow Depth Not available.
UV 0 out of 12
Pollen 8.40 out of 12
Air Quality Not available.
Flu Activity Not available.
METAR KNGP 311056Z AUTO 05007KT 6SM BR OVC020 16/16 A3009 RMK AO2 SLP187 T01610156

More Conditions Fewer Conditions

Nowcast | as of 4:57 am CST on January 31, 2015

Isolated light rain and sprinkles will develop across the coastal Bend early this morning. The strongest activity is currently just offshore south of Port Aransas...but many areas will see at least enough precipitation to wet pavement. No significant rainfall amounts are expected early this morning.

×

10-Day Weather Forecast

Almanac

Astronomy

Jan. 31, 2015 Rise Set
Actual Time
Civil Twilight
Nautical Twilight
Astronomical Twilight
Moon
Length of Visible Light
Length of Day
Tomorrow will be .
, % of the Moon is Illuminated

Today's Extremes

State Highs State Lows

Community

WunderPhotos

Upload Photos

1,792,031 photos uploaded!

WunderBlogs® & News

Nearby

Air Quality

  Air Quality AQ Index Pollutant
Not available.

Snow Depth

Station Depth Elevation

Earthquake Activity

City Distance Mag. Time & Date
Minimum magnitude displayed is 2.5.

Coastal Water Temperatures

Place Temperature

Nearby Weather Stations